Time;durP1;ratioP1;P1;durP2;ratioP2;P2;SDS_P1;SDS_P2;PMS_P1;PMS_P2;Temp;Humidity;BMP_temperature;BMP_pressure;BME280_temperature;BME280_humidity;BME280_pressure;Samples;Min_cycle;Max_cycle;Signal;HPM_P1;HPM_P2
2023/06/05 00:01:55;;;;;;;12.57;4.63;;;;;;;-146.27;79.36;82771.91;5030497;28;20025;-70
2023/06/05 00:04:20;;;;;;;7.45;4.35;;;;;;;-146.27;79.55;82749.81;5031406;28;20111;-69
2023/06/05 00:06:46;;;;;;;9.65;4.20;;;;;;;-146.27;79.68;82759.84;5041618;28;20029;-68
2023/06/05 00:09:13;;;;;;;9.27;4.25;;;;;;;-146.27;79.83;82761.84;5043443;28;20107;-68
2023/06/05 00:11:39;;;;;;;10.02;5.25;;;;;;;-146.27;79.68;82810.06;5029517;28;20115;-69
2023/06/05 00:14:05;;;;;;;6.75;4.35;;;;;;;-146.27;80.45;82769.91;5022508;28;20504;-68
2023/06/05 00:16:31;;;;;;;7.93;4.60;;;;;;;-146.27;79.66;82745.78;5020922;28;20087;-68
2023/06/05 00:18:56;;;;;;;9.95;5.40;;;;;;;-146.27;80.10;82773.91;5027415;28;20653;-68
2023/06/05 00:21:23;;;;;;;9.95;5.10;;;;;;;-146.27;80.67;82798.03;5022771;28;20060;-68
2023/06/05 00:23:48;;;;;;;7.88;4.82;;;;;;;-146.27;80.54;82840.22;5030131;28;20462;-69
2023/06/05 00:26:13;;;;;;;10.52;5.20;;;;;;;-146.27;80.64;82850.25;5022377;28;20108;-70
2023/06/05 00:28:39;;;;;;;9.30;4.90;;;;;;;-146.27;80.75;82874.38;5029487;28;20022;-68
2023/06/05 00:31:05;;;;;;;8.45;5.18;;;;;;;-146.27;80.76;82832.19;5029983;28;20025;-69
2023/06/05 00:33:31;;;;;;;6.97;4.32;;;;;;;-146.27;81.47;82856.28;5031005;28;20029;-69
2023/06/05 00:35:57;;;;;;;8.55;4.57;;;;;;;-146.27;81.24;82850.25;5029751;28;20071;-69
2023/06/05 00:38:22;;;;;;;11.43;5.07;;;;;;;-146.27;81.35;82914.53;5029705;28;20041;-69
2023/06/05 00:40:47;;;;;;;8.77;4.55;;;;;;;-146.27;82.29;82890.44;5026386;28;20033;-68
2023/06/05 00:43:13;;;;;;;7.68;5.05;;;;;;;-146.27;82.34;82888.44;5031382;28;20436;-68
2023/06/05 00:45:38;;;;;;;10.40;5.45;;;;;;;-146.27;81.74;82918.56;5029404;28;20070;-69
2023/06/05 00:48:04;;;;;;;5.40;4.55;;;;;;;-146.27;82.11;82896.47;5031157;28;20059;-68
2023/06/05 00:50:32;;;;;;;8.85;5.28;;;;;;;-146.27;81.98;82946.69;5031139;28;20034;-69
2023/06/05 00:52:58;;;;;;;10.18;5.00;;;;;;;-146.27;81.94;82926.59;5031530;28;20025;-69
2023/06/05 00:55:25;;;;;;;8.57;5.50;;;;;;;-146.27;82.01;82902.50;5030140;28;20522;-68
2023/06/05 00:57:51;;;;;;;13.10;5.47;;;;;;;-146.27;82.09;82910.53;5030082;28;20044;-68
2023/06/05 01:00:16;;;;;;;8.70;5.53;;;;;;;-146.27;82.22;82940.66;5025715;28;20397;-69
2023/06/05 01:02:42;;;;;;;8.13;5.63;;;;;;;-146.27;82.96;82948.69;5022962;28;20052;-69
2023/06/05 01:05:08;;;;;;;8.05;5.32;;;;;;;-146.27;83.39;82918.56;5021242;28;20025;-69
2023/06/05 01:07:37;;;;;;;11.88;5.95;;;;;;;-146.27;83.08;82942.66;5027330;28;20029;-69
2023/06/05 01:10:05;;;;;;;8.88;5.57;;;;;;;-146.27;82.06;82914.53;5027777;28;20128;-69
2023/06/05 01:12:43;;;;;;;9.57;5.70;;;;;;;-146.27;83.07;82928.59;5024407;28;20040;-69
2023/06/05 01:15:09;;;;;;;8.65;5.63;;;;;;;-146.27;81.87;82938.66;5030979;28;20033;-69
2023/06/05 01:17:34;;;;;;;10.93;6.15;;;;;;;-146.27;82.77;82938.66;5023279;28;20029;-69
2023/06/05 01:20:06;;;;;;;8.20;5.70;;;;;;;-146.27;82.08;82952.72;5028108;28;20021;-69
2023/06/05 01:22:32;;;;;;;8.38;5.75;;;;;;;-146.27;82.41;82952.72;5025307;28;20180;-69
2023/06/05 01:24:59;;;;;;;13.82;6.28;;;;;;;-146.27;83.38;82966.78;5027422;28;20118;-69
2023/06/05 01:27:35;;;;;;;11.18;6.05;;;;;;;-146.27;83.57;82966.78;5028452;28;20029;-68
2023/06/05 01:30:07;;;;;;;7.85;6.10;;;;;;;-146.27;84.56;82998.94;5025643;28;20033;-69
2023/06/05 01:32:40;;;;;;;7.63;5.90;;;;;;;-146.27;84.01;82968.78;5031158;28;20029;-69
2023/06/05 01:35:07;;;;;;;;;;;;;;;-146.27;83.05;82982.84;5036277;28;20094;-68
2023/06/05 01:37:36;;;;;;;9.00;5.75;;;;;;;-146.27;83.91;83015.00;5030745;28;19913;-70
2023/06/05 01:40:04;;;;;;;12.30;5.97;;;;;;;-146.27;83.34;83000.94;5031004;28;20362;-70
2023/06/05 01:42:29;;;;;;;8.77;6.35;;;;;;;-146.27;84.80;82974.81;5025332;28;20036;-71
2023/06/05 01:44:56;;;;;;;9.70;6.50;;;;;;;-146.27;84.01;83027.06;5023381;28;20026;-71
2023/06/05 01:47:22;;;;;;;10.15;5.85;;;;;;;-146.27;84.37;83015.00;5033370;28;20029;-69
2023/06/05 01:49:47;;;;;;;11.48;6.65;;;;;;;-146.27;84.33;83033.09;5031867;28;20041;-69
2023/06/05 01:52:13;;;;;;;14.55;7.20;;;;;;;-146.27;85.02;82998.94;5034802;28;20552;-68
2023/06/05 01:54:38;;;;;;;12.70;7.30;;;;;;;-146.27;84.61;83006.97;5017701;28;20547;-68
2023/06/05 01:57:04;;;;;;;12.00;6.30;;;;;;;-146.27;83.85;82972.81;5030241;28;20380;-68
2023/06/05 01:59:30;;;;;;;9.32;7.00;;;;;;;-146.27;83.91;83015.00;5017651;28;20032;-70
2023/06/05 02:01:55;;;;;;;10.65;6.93;;;;;;;-146.27;84.42;82974.81;5034255;28;20056;-68
2023/06/05 02:04:21;;;;;;;10.50;6.50;;;;;;;-146.27;83.98;83047.16;5031532;28;20057;-70
2023/06/05 02:06:48;;;;;;;10.52;6.55;;;;;;;-146.27;84.12;83035.09;5032506;28;20029;-68
2023/06/05 02:09:14;;;;;;;12.43;7.38;;;;;;;-146.27;84.31;83077.28;5033805;28;20508;-68
2023/06/05 02:11:42;;;;;;;11.52;6.40;;;;;;;-146.27;83.99;83057.19;5033948;28;20030;-69
2023/06/05 02:14:08;;;;;;;7.75;6.15;;;;;;;-146.27;84.27;83041.13;5030775;28;20450;-69
2023/06/05 02:16:36;;;;;;;9.18;6.28;;;;;;;-146.27;85.06;83039.09;5032971;28;20029;-69
2023/06/05 02:19:03;;;;;;;12.68;6.60;;;;;;;-146.27;84.21;83097.38;5034214;28;20137;-68
2023/06/05 02:21:32;;;;;;;9.40;6.93;;;;;;;-146.27;84.56;83089.34;5032337;28;20057;-69
2023/06/05 02:23:58;;;;;;;12.15;6.95;;;;;;;-146.27;84.75;83105.41;5032347;28;20029;-68
2023/06/05 02:26:23;;;;;;;9.98;6.38;;;;;;;-146.27;84.77;83095.38;5030430;28;20029;-68
2023/06/05 02:28:49;;;;;;;10.98;6.57;;;;;;;-146.27;85.06;83143.59;5032148;28;20524;-68
2023/06/05 02:31:15;;;;;;;11.10;6.82;;;;;;;-146.27;85.69;83131.53;5031645;28;20032;-68
2023/06/05 02:33:41;;;;;;;12.50;6.80;;;;;;;-146.27;85.65;83103.41;5033358;28;20101;-67
2023/06/05 02:36:07;;;;;;;11.35;7.22;;;;;;;-146.27;85.58;83139.56;5031815;28;20115;-69
2023/06/05 02:38:33;;;;;;;8.90;6.68;;;;;;;-146.27;86.15;83169.69;5032647;28;20032;-69
2023/06/05 02:40:59;;;;;;;9.50;6.88;;;;;;;-146.27;86.14;83113.44;5031516;28;20531;-69
2023/06/05 02:43:25;;;;;;;11.80;6.40;;;;;;;-146.27;86.21;83139.56;5031531;28;20033;-70
2023/06/05 02:45:50;;;;;;;9.00;6.22;;;;;;;-146.27;86.12;83167.69;5029445;28;20041;-69
2023/06/05 02:48:15;;;;;;;10.63;6.63;;;;;;;-146.27;87.01;83113.44;5032725;28;20025;-69
2023/06/05 02:50:41;;;;;;;15.38;6.72;;;;;;;-146.27;85.86;83139.56;5033298;28;20033;-69
2023/06/05 02:53:06;;;;;;;12.20;6.32;;;;;;;-146.27;85.70;83165.69;5033483;28;20032;-69
2023/06/05 02:55:32;;;;;;;12.52;6.53;;;;;;;-146.27;86.56;83163.69;5032566;28;20461;-69
2023/06/05 02:57:58;;;;;;;12.48;6.75;;;;;;;-146.27;87.43;83131.53;5031623;28;20614;-69
2023/06/05 03:00:26;;;;;;;10.98;7.15;;;;;;;-146.27;86.01;83151.63;5031672;28;20048;-70
2023/06/05 03:02:51;;;;;;;13.55;6.85;;;;;;;-146.27;85.77;83117.47;5028562;28;20034;-69
2023/06/05 03:05:18;;;;;;;11.38;6.70;;;;;;;-146.27;86.37;83167.69;5028563;28;20052;-68
2023/06/05 03:07:43;;;;;;;9.38;6.38;;;;;;;-146.27;86.32;83155.63;5032027;28;20025;-69
2023/06/05 03:10:09;;;;;;;12.15;7.57;;;;;;;-146.27;86.80;83151.63;5016984;28;20084;-68
2023/06/05 03:12:34;;;;;;;12.05;7.78;;;;;;;-146.27;86.58;83143.59;5031661;28;20030;-69
2023/06/05 03:15:00;;;;;;;19.92;8.93;;;;;;;-146.27;86.67;83129.53;5031747;28;20386;-69
2023/06/05 03:17:27;;;;;;;10.52;6.70;;;;;;;-146.27;87.43;83113.44;5027931;28;20057;-70
2023/06/05 03:19:52;;;;;;;12.20;7.15;;;;;;;-146.27;87.18;83163.69;5020696;28;20084;-69
2023/06/05 03:22:18;;;;;;;16.02;7.68;;;;;;;-146.27;87.55;83167.69;5029373;28;20498;-70
2023/06/05 03:24:43;;;;;;;16.30;7.65;;;;;;;-146.27;86.51;83123.50;5031841;28;20021;-70
2023/06/05 03:27:09;;;;;;;12.05;7.28;;;;;;;-146.27;86.75;83141.56;5031683;28;20025;-69
2023/06/05 03:29:34;;;;;;;12.98;7.10;;;;;;;-146.27;87.31;83127.50;5028966;28;20025;-68
2023/06/05 03:31:59;;;;;;;13.60;7.68;;;;;;;-146.27;87.29;83101.38;5023025;28;20426;-69
2023/06/05 03:34:25;;;;;;;12.52;7.13;;;;;;;-146.27;86.80;83137.56;5025234;28;20040;-69
2023/06/05 03:36:52;;;;;;;13.57;7.68;;;;;;;-146.27;86.02;83107.41;5030955;28;20029;-69
2023/06/05 03:39:17;;;;;;;10.98;7.28;;;;;;;-146.27;86.67;83141.56;5027638;28;20116;-69
2023/06/05 03:41:43;;;;;;;12.20;7.47;;;;;;;-146.27;86.67;83171.72;5023839;28;20109;-69
2023/06/05 03:44:08;;;;;;;12.90;7.55;;;;;;;-146.27;87.12;83153.63;5031616;28;20040;-68
2023/06/05 03:46:35;;;;;;;16.25;8.27;;;;;;;-146.27;87.51;83131.53;5029852;28;20045;-67
2023/06/05 03:49:08;;;;;;;10.80;7.47;;;;;;;-146.27;87.15;83127.50;5026407;28;20477;-69
2023/06/05 03:51:34;;;;;;;13.37;7.57;;;;;;;-146.27;87.29;83175.72;5025959;28;20071;-69
2023/06/05 03:54:00;;;;;;;13.68;8.57;;;;;;;-146.27;86.86;83119.47;5018135;28;20025;-69
2023/06/05 03:56:33;;;;;;;13.43;7.18;;;;;;;-146.27;87.01;83163.69;5026281;28;20412;-69
2023/06/05 03:59:08;;;;;;;13.30;7.10;;;;;;;-146.27;87.52;83153.63;5030137;28;20039;-67
2023/06/05 04:01:34;;;;;;;14.75;7.55;;;;;;;-146.27;87.12;83155.63;5031567;28;20021;-68
2023/06/05 04:04:00;;;;;;;13.73;7.78;;;;;;;-146.27;87.67;83171.72;5021421;28;20072;-68
2023/06/05 04:06:26;;;;;;;9.55;6.53;;;;;;;-146.27;87.62;83175.72;5011794;28;20026;-68
2023/06/05 04:08:52;;;;;;;11.68;6.97;;;;;;;-146.27;88.09;83141.56;5023829;28;20037;-69
2023/06/05 04:11:18;;;;;;;13.68;7.43;;;;;;;-146.27;87.45;83111.44;5045356;28;20060;-68
2023/06/05 04:13:43;;;;;;;10.43;7.05;;;;;;;-146.27;87.91;83161.66;5034343;28;20021;-68
2023/06/05 04:16:10;;;;;;;11.20;6.60;;;;;;;-146.27;88.12;83131.53;5030610;28;20489;-69
2023/06/05 04:18:35;;;;;;;8.30;6.20;;;;;;;-146.27;87.97;83119.47;5028299;28;20056;-67
2023/06/05 04:21:01;;;;;;;10.10;6.65;;;;;;;-146.27;87.97;83105.41;5021266;28;20683;-69
2023/06/05 04:23:26;;;;;;;10.60;6.85;;;;;;;-146.27;87.66;83123.50;5016954;28;20025;-68
2023/06/05 04:25:54;;;;;;;9.82;6.28;;;;;;;-146.27;88.24;83207.88;5023437;28;20499;-68
2023/06/05 04:28:19;;;;;;;10.13;6.63;;;;;;;-146.27;87.90;83115.47;5026668;28;20026;-68
2023/06/05 04:30:45;;;;;;;13.27;6.18;;;;;;;-146.27;88.13;83131.53;5016266;28;20087;-68
2023/06/05 04:33:11;;;;;;;11.65;7.22;;;;;;;-146.27;89.89;83109.44;5028373;28;20056;-68
2023/06/05 04:35:37;;;;;;;13.95;7.00;;;;;;;-146.27;88.68;83117.47;5029191;28;20052;-67
2023/06/05 04:38:02;;;;;;;9.05;6.53;;;;;;;-146.27;88.10;83071.25;5028288;28;20036;-69
2023/06/05 04:40:28;;;;;;;11.75;6.30;;;;;;;-146.27;88.19;83083.31;5027273;28;20545;-70
2023/06/05 04:42:54;;;;;;;13.05;7.05;;;;;;;-146.27;88.33;83063.22;5027477;28;20413;-69
2023/06/05 04:45:21;;;;;;;11.00;6.55;;;;;;;-146.27;88.21;83037.09;5021146;28;20029;-68
2023/06/05 04:47:46;;;;;;;14.32;7.22;;;;;;;-146.27;88.67;83010.97;5024945;28;20033;-69
2023/06/05 04:50:25;;;;;;;10.70;6.95;;;;;;;-146.27;87.85;83079.28;5022673;28;20037;-69
2023/06/05 04:52:52;;;;;;;10.27;6.78;;;;;;;-146.27;88.52;83063.22;5028421;28;20563;-68
2023/06/05 04:55:18;;;;;;;13.95;7.00;;;;;;;-146.27;88.84;83045.13;5022365;28;20057;-69
2023/06/05 04:57:43;;;;;;;9.32;6.20;;;;;;;-146.27;88.25;82992.91;5021805;28;20481;-69
2023/06/05 05:00:10;;;;;;;11.68;7.78;;;;;;;-146.27;89.40;82982.84;5025273;28;20041;-69
2023/06/05 05:02:36;;;;;;;15.45;6.88;;;;;;;-146.27;88.44;82996.91;5027232;28;20129;-69
2023/06/05 05:05:01;;;;;;;9.43;6.88;;;;;;;-146.27;88.53;82996.91;5027679;28;20025;-69
2023/06/05 05:07:28;;;;;;;12.45;6.82;;;;;;;-146.27;88.71;83035.09;5018392;28;20091;-69
2023/06/05 05:09:53;;;;;;;14.07;7.43;;;;;;;-146.27;89.26;82998.94;5020848;28;20076;-68
2023/06/05 05:12:19;;;;;;;11.25;6.68;;;;;;;-146.27;87.92;83019.03;5019578;28;20242;-68
2023/06/05 05:14:44;;;;;;;11.18;6.97;;;;;;;-146.27;87.53;82954.72;5028625;28;20456;-68
2023/06/05 05:17:10;;;;;;;9.95;7.07;;;;;;;-146.27;87.78;82986.88;5026209;28;20123;-68
2023/06/05 05:19:39;;;;;;;14.25;7.20;;;;;;;-146.27;88.16;82940.66;5035256;28;20129;-68
2023/06/05 05:22:05;;;;;;;10.55;6.88;;;;;;;-146.27;87.87;82930.63;5016709;28;20032;-68
2023/06/05 05:24:30;;;;;;;11.00;6.95;;;;;;;-146.27;88.15;82890.44;5029719;28;20029;-69
2023/06/05 05:26:56;;;;;;;14.80;6.85;;;;;;;-146.27;87.44;82912.53;5030008;28;20041;-69
2023/06/05 05:29:21;;;;;;;11.57;7.07;;;;;;;-146.27;87.54;82942.66;5021554;28;20024;-69
2023/06/05 05:31:46;;;;;;;13.70;7.35;;;;;;;-146.27;87.46;82886.41;5019632;28;20022;-69
2023/06/05 05:34:12;;;;;;;10.02;6.80;;;;;;;-146.27;87.57;82900.47;5026695;28;20147;-68
2023/06/05 05:36:37;;;;;;;10.38;6.88;;;;;;;-146.27;87.64;82814.09;5025752;28;20695;-66
2023/06/05 05:39:04;;;;;;;12.60;6.50;;;;;;;-146.27;87.51;82866.31;5023420;28;20025;-69
2023/06/05 05:41:29;;;;;;;13.27;7.35;;;;;;;-146.27;87.39;82854.28;5026182;28;20024;-70
2023/06/05 05:43:55;;;;;;;10.52;5.85;;;;;;;-146.27;87.40;82858.28;5027987;28;20489;-67
2023/06/05 05:46:20;;;;;;;10.13;5.82;;;;;;;-146.27;86.24;82834.19;5027239;28;20025;-68
2023/06/05 05:48:45;;;;;;;8.60;5.35;;;;;;;-146.27;85.31;82842.22;5030149;28;20032;-68
2023/06/05 05:51:11;;;;;;;7.95;5.00;;;;;;;-146.27;84.67;82858.28;5028913;28;20024;-68
2023/06/05 05:53:36;;;;;;;8.73;4.53;;;;;;;-146.27;84.67;82781.94;5021919;28;20041;-70
2023/06/05 05:56:06;;;;;;;5.75;4.70;;;;;;;-146.27;83.85;82777.94;5023894;28;20026;-70
2023/06/05 05:58:31;;;;;;;14.48;4.53;;;;;;;-146.27;83.42;82802.03;5024124;28;20302;-70
2023/06/05 06:00:59;;;;;;;10.90;3.97;;;;;;;-146.27;82.49;82747.78;5020660;28;20080;-70
2023/06/05 06:03:26;;;;;;;10.35;4.13;;;;;;;-146.27;82.12;82785.97;5027167;28;20594;-69
2023/06/05 06:05:51;;;;;;;5.40;4.05;;;;;;;-146.27;82.07;82789.97;5025966;28;20155;-69
2023/06/05 06:08:17;;;;;;;7.85;3.72;;;;;;;-146.27;81.60;82701.59;5026554;28;20491;-69
2023/06/05 06:10:43;;;;;;;12.77;4.55;;;;;;;-146.27;82.25;82699.59;5026819;28;20060;-69
2023/06/05 06:13:08;;;;;;;8.45;4.47;;;;;;;-146.27;82.21;82667.44;5022137;28;20068;-70
2023/06/05 06:15:34;;;;;;;10.30;5.13;;;;;;;-146.27;81.77;82645.34;5026519;28;20026;-69
2023/06/05 06:18:02;;;;;;;7.95;4.93;;;;;;;-146.27;80.94;82569.00;5028753;28;20021;-69
2023/06/05 06:20:28;;;;;;;9.48;5.80;;;;;;;-146.27;80.48;82538.88;5026660;28;20026;-69
2023/06/05 06:22:54;;;;;;;7.05;5.10;;;;;;;-146.27;79.77;82530.84;5027974;28;20072;-69
2023/06/05 06:25:20;;;;;;;7.57;4.53;;;;;;;-146.27;78.19;82520.78;5027440;28;20021;-69
2023/06/05 06:27:48;;;;;;;6.20;4.85;;;;;;;-146.27;78.01;82514.75;5016767;28;20414;-70
2023/06/05 06:30:16;;;;;;;9.82;5.22;;;;;;;-146.27;77.89;82484.63;5020405;28;20024;-70
2023/06/05 06:32:42;;;;;;;7.07;4.43;;;;;;;-146.27;77.56;82468.56;5018262;28;20037;-69
2023/06/05 06:35:07;;;;;;;7.65;4.20;;;;;;;-146.27;76.39;82484.63;5029260;28;20036;-69
2023/06/05 06:37:33;;;;;;;6.03;4.50;;;;;;;-146.27;76.47;82400.25;5026899;28;20394;-70
2023/06/05 06:39:59;;;;;;;7.85;4.30;;;;;;;-146.27;76.77;82404.28;5028004;28;20029;-70
2023/06/05 06:42:26;;;;;;;5.57;4.10;;;;;;;-146.27;75.54;82408.28;5033318;28;20057;-70
2023/06/05 06:44:55;;;;;;;5.88;3.95;;;;;;;-146.27;74.92;82436.41;5032752;28;20478;-70
2023/06/05 06:47:25;;;;;;;9.75;4.10;;;;;;;-146.27;73.97;82456.50;5029968;28;20048;-70
2023/06/05 06:49:51;;;;;;;5.53;3.90;;;;;;;-146.27;74.09;82488.66;5031674;28;20140;-70
2023/06/05 06:52:18;;;;;;;5.88;3.53;;;;;;;-146.27;73.94;82442.44;5033162;28;20386;-69
2023/06/05 06:54:44;;;;;;;6.13;3.90;;;;;;;-146.27;74.17;82452.47;5032721;28;20021;-69
2023/06/05 06:57:09;;;;;;;5.00;4.05;;;;;;;-146.27;73.50;82464.53;5031497;28;21534;-69
2023/06/05 06:59:34;;;;;;;5.07;3.33;;;;;;;-146.27;74.79;82466.56;5031683;28;20268;-70
2023/06/05 07:02:17;;;;;;;5.85;3.65;;;;;;;-146.27;75.25;82452.47;5032419;28;20388;-69
2023/06/05 07:04:44;;;;;;;6.17;3.87;;;;;;;-146.27;75.69;82492.66;5014099;28;20064;-70
2023/06/05 07:07:14;;;;;;;4.75;3.70;;;;;;;-146.27;74.56;82504.72;5021943;28;20033;-70
2023/06/05 07:09:43;;;;;;;6.78;3.85;;;;;;;-146.27;74.64;82542.88;5029450;28;20041;-70
2023/06/05 07:12:09;;;;;;;4.72;3.35;;;;;;;-146.27;74.08;82458.50;5031702;28;20033;-70
2023/06/05 07:14:35;;;;;;;6.40;3.95;;;;;;;-146.27;73.97;82460.53;5032224;28;20033;-71
2023/06/05 07:17:01;;;;;;;8.50;3.85;;;;;;;-146.27;73.16;82492.66;5029532;28;20481;-70
2023/06/05 07:19:30;;;;;;;7.28;3.83;;;;;;;-146.27;73.18;82448.47;5029172;28;20025;-69
2023/06/05 07:21:57;;;;;;;8.20;3.88;;;;;;;-146.27;73.37;82450.47;5029892;28;20028;-70
2023/06/05 07:24:24;;;;;;;8.57;3.08;;;;;;;-146.27;74.27;82472.56;5027396;28;20029;-70
2023/06/05 07:26:52;;;;;;;6.70;3.63;;;;;;;-146.27;74.50;82468.56;5032326;28;20033;-70
2023/06/05 07:29:18;;;;;;;9.40;3.47;;;;;;;-146.27;74.21;82502.72;5033136;28;20171;-71
2023/06/05 07:31:43;;;;;;;5.15;3.50;;;;;;;-146.27;74.55;82448.47;5015591;28;20109;-71
2023/06/05 07:34:09;;;;;;;5.25;3.30;;;;;;;-146.27;73.38;82420.34;5022328;28;20108;-70
2023/06/05 07:36:36;;;;;;;4.07;3.33;;;;;;;-146.27;73.85;82366.09;5019992;28;20148;-72
2023/06/05 07:39:02;;;;;;;4.38;3.28;;;;;;;-146.27;71.77;82360.09;5023992;28;20037;-70
2023/06/05 07:41:27;;;;;;;5.22;3.72;;;;;;;-146.27;72.00;82344.00;5013581;28;20421;-73
2023/06/05 07:43:52;;;;;;;4.82;2.88;;;;;;;-146.27;71.53;82342.00;5034708;28;20071;-71
2023/06/05 07:46:18;;;;;;;4.90;3.53;;;;;;;-146.27;71.56;82315.88;5029889;28;20044;-70
2023/06/05 07:48:43;;;;;;;8.60;3.58;;;;;;;-146.27;70.83;82303.84;5019930;28;20747;-71
2023/06/05 07:51:08;;;;;;;5.80;3.25;;;;;;;-146.27;71.53;82289.78;5026975;28;20531;-70
2023/06/05 07:53:34;;;;;;;8.23;3.60;;;;;;;-146.27;70.40;82249.59;5031642;28;20033;-71
2023/06/05 07:55:59;;;;;;;7.03;3.55;;;;;;;-146.27;69.08;82239.56;5020630;28;20125;-71
2023/06/05 07:58:27;;;;;;;5.43;3.53;;;;;;;-146.27;69.59;82185.31;5012202;28;20738;-71
2023/06/05 08:00:53;;;;;;;6.32;3.33;;;;;;;-146.27;68.09;82199.38;5019793;28;20104;-71
2023/06/05 08:03:19;;;;;;;7.47;3.90;;;;;;;-146.27;68.44;82167.25;5031985;28;20115;-69
2023/06/05 08:05:49;;;;;;;5.38;3.45;;;;;;;-146.27;67.28;82131.09;5030049;28;20052;-71
2023/06/05 08:08:15;;;;;;;9.43;3.88;;;;;;;-146.27;67.40;82147.16;5022863;28;20481;-71
2023/06/05 08:10:41;;;;;;;10.73;3.50;;;;;;;-146.27;67.40;82121.03;5028805;28;20124;-70
2023/06/05 08:13:08;;;;;;;4.95;3.55;;;;;;;-146.27;65.68;82106.97;5030897;28;20147;-69
2023/06/05 08:15:33;;;;;;;6.30;3.38;;;;;;;-146.27;65.37;82102.97;5029937;28;20025;-70
2023/06/05 08:17:59;;;;;;;6.30;3.22;;;;;;;-146.27;66.12;82086.91;5025960;28;20056;-71
2023/06/05 08:20:24;;;;;;;5.45;3.50;;;;;;;-146.27;65.67;82070.81;5025392;28;20052;-71
2023/06/05 08:22:50;;;;;;;6.30;3.47;;;;;;;-146.27;65.99;82104.97;5029509;28;20048;-71
2023/06/05 08:25:15;;;;;;;5.30;3.63;;;;;;;-146.27;64.12;82042.69;5017629;28;20026;-71
2023/06/05 08:27:41;;;;;;;5.13;3.20;;;;;;;-146.27;63.43;82006.53;5030534;28;20056;-71
2023/06/05 08:30:08;;;;;;;3.83;2.85;;;;;;;-146.27;64.64;81994.50;5027284;28;20056;-70
2023/06/05 08:32:33;;;;;;;8.93;3.28;;;;;;;-146.27;64.17;81998.50;5029647;28;20037;-70
2023/06/05 08:34:59;;;;;;;5.47;3.20;;;;;;;-146.27;64.03;82016.59;5031137;28;20080;-70
2023/06/05 08:37:24;;;;;;;4.70;3.35;;;;;;;-146.27;63.15;82026.63;5029942;28;20095;-71
2023/06/05 08:39:50;;;;;;;4.60;3.00;;;;;;;-146.27;62.80;82058.78;5029794;28;20101;-71
2023/06/05 08:42:18;;;;;;;5.63;3.13;;;;;;;-146.27;63.32;81978.44;5026340;28;20025;-71
2023/06/05 08:44:47;;;;;;;6.68;3.15;;;;;;;-146.27;63.94;81990.47;5030879;28;20104;-72
2023/06/05 08:47:14;;;;;;;4.78;3.08;;;;;;;-146.27;63.29;81936.25;5030910;28;20021;-71
2023/06/05 08:49:41;;;;;;;3.88;2.83;;;;;;;-146.27;62.48;81956.34;5026962;28;20034;-69
2023/06/05 08:52:07;;;;;;;6.15;3.13;;;;;;;-146.27;61.06;81904.13;5030551;28;20496;-70
2023/06/05 08:54:37;;;;;;;4.82;2.78;;;;;;;-146.27;61.20;81894.06;5030923;28;20083;-69
2023/06/05 08:57:04;;;;;;;5.72;2.80;;;;;;;-146.27;60.41;81835.81;5028368;28;20349;-70
2023/06/05 08:59:30;;;;;;;5.63;3.53;;;;;;;-146.27;59.27;81823.78;5014038;28;20064;-69
2023/06/05 09:01:56;;;;;;;5.78;3.20;;;;;;;-146.27;59.27;81849.88;5011064;28;20042;-69
2023/06/05 09:04:23;;;;;;;7.30;3.40;;;;;;;-146.27;59.45;81831.81;5010770;28;20382;-69
2023/06/05 09:06:52;;;;;;;4.82;3.70;;;;;;;-146.27;59.00;81793.66;5013852;28;20125;-69
2023/06/05 09:09:18;;;;;;;6.65;3.13;;;;;;;-146.27;60.03;81789.63;5030159;28;20132;-69
2023/06/05 09:11:45;;;;;;;6.32;2.92;;;;;;;-146.27;58.10;81765.53;5024219;28;20107;-69
2023/06/05 09:14:10;;;;;;;4.97;2.92;;;;;;;-146.27;57.39;81703.25;5028969;28;20029;-69
2023/06/05 09:16:44;;;;;;;4.32;3.15;;;;;;;-146.27;56.66;81705.28;5030305;28;20033;-69
2023/06/05 09:19:11;;;;;;;4.75;3.25;;;;;;;-146.27;56.88;81641.00;5030020;28;20465;-69
2023/06/05 09:21:37;;;;;;;5.38;3.45;;;;;;;-146.27;57.07;81636.97;5030280;28;20025;-69
2023/06/05 09:24:23;;;;;;;4.05;2.90;;;;;;;-146.27;56.40;81649.03;5030362;28;20434;-70
2023/06/05 09:27:05;;;;;;;5.63;3.28;;;;;;;-146.27;56.09;81653.06;5029667;28;20056;-69
2023/06/05 09:29:36;;;;;;;6.53;3.53;;;;;;;-146.27;57.60;81683.19;5030399;28;20037;-69
2023/06/05 09:32:06;;;;;;;4.95;3.38;;;;;;;-146.27;57.58;81628.94;5027109;28;20111;-70
2023/06/05 09:34:35;;;;;;;6.00;3.83;;;;;;;-146.27;58.77;81588.78;5030333;28;20038;-69
2023/06/05 09:37:06;;;;;;;3.55;2.88;;;;;;;-146.27;56.04;81602.84;5027573;28;20025;-68
2023/06/05 09:39:34;;;;;;;6.55;3.42;;;;;;;-146.27;55.70;81560.66;5030074;28;20210;-70
2023/06/05 09:42:00;;;;;;;4.45;3.42;;;;;;;-146.27;55.02;81548.59;5030206;28;20497;-69
2023/06/05 09:44:27;;;;;;;6.88;3.45;;;;;;;-146.27;56.99;81500.41;5016581;28;20025;-68
2023/06/05 09:46:56;;;;;;;6.15;3.72;;;;;;;-146.27;55.20;81540.56;5028680;28;20029;-69
2023/06/05 09:49:25;;;;;;;6.80;3.60;;;;;;;-146.27;55.25;81466.28;5028871;28;20033;-69
2023/06/05 09:51:50;;;;;;;5.55;3.10;;;;;;;-146.27;54.27;81375.91;5027320;28;20026;-69
2023/06/05 09:54:17;;;;;;;7.70;3.92;;;;;;;-146.27;53.32;81381.91;5030028;28;20040;-69
2023/06/05 09:56:49;;;;;;;7.43;3.10;;;;;;;-146.27;53.81;81313.63;5027040;28;20018;-69
2023/06/05 09:59:20;;;;;;;5.15;3.30;;;;;;;-146.27;50.74;81331.72;5020072;28;20075;-69
2023/06/05 10:01:46;;;;;;;6.50;4.53;;;;;;;-146.27;52.63;81373.88;5027017;28;20039;-69
2023/06/05 10:04:13;;;;;;;6.68;3.72;;;;;;;-146.27;53.29;81359.81;5022838;28;20331;-69
2023/06/05 10:06:40;;;;;;;7.25;3.63;;;;;;;-146.27;52.81;81321.66;5025931;28;20444;-70
2023/06/05 10:09:07;;;;;;;4.78;2.97;;;;;;;-146.27;53.21;81293.56;5026363;28;20045;-70
2023/06/05 10:11:33;;;;;;;6.47;4.00;;;;;;;-146.27;51.72;81265.44;5025895;28;20120;-70
2023/06/05 10:13:59;;;;;;;3.95;3.00;;;;;;;-146.27;53.56;81213.22;5026749;28;20112;-69
2023/06/05 10:16:27;;;;;;;5.47;3.95;;;;;;;-146.27;50.39;81199.16;5026893;28;20526;-69
2023/06/05 10:18:55;;;;;;;5.63;4.05;;;;;;;-146.27;50.99;81207.19;5031462;28;20033;-69
2023/06/05 10:21:21;;;;;;;16.05;4.22;;;;;;;-146.27;49.09;81148.97;5031666;28;20037;-69
2023/06/05 10:23:55;;;;;;;8.60;3.83;;;;;;;-146.27;50.18;81094.75;5033294;28;20034;-69
2023/06/05 10:26:43;;;;;;;6.25;3.78;;;;;;;-146.27;49.55;81130.88;5033377;28;20029;-68
2023/06/05 10:29:20;;;;;;;6.55;4.25;;;;;;;-146.27;49.71;81100.75;5026897;28;20044;-70
2023/06/05 10:31:53;;;;;;;8.20;4.55;;;;;;;-146.27;48.70;81050.56;5028900;28;20060;-68
2023/06/05 10:34:21;;;;;;;6.43;3.92;;;;;;;-146.27;49.26;80984.28;5031922;28;20059;-68
2023/06/05 10:37:03;;;;;;;9.55;4.70;;;;;;;-146.27;49.75;81042.53;5031131;28;20062;-69
2023/06/05 10:39:30;;;;;;;6.78;4.40;;;;;;;-146.27;47.48;80970.25;5033193;28;20611;-69
2023/06/05 10:41:56;;;;;;;6.93;4.22;;;;;;;-146.27;50.21;80918.03;5031803;28;20390;-69
2023/06/05 10:44:39;;;;;;;6.35;4.32;;;;;;;-146.27;48.36;80918.03;5022142;28;20471;-69
2023/06/05 10:47:32;;;;;;;8.70;4.53;;;;;;;-146.27;49.12;80877.88;5013240;28;20026;-69
2023/06/05 10:50:19;;;;;;;4.75;3.83;;;;;;;-146.27;47.70;80729.28;5013070;28;20030;-70
2023/06/05 10:52:46;;;;;;;7.18;4.43;;;;;;;-146.27;47.62;80789.50;5028571;28;20052;-70
2023/06/05 10:55:12;;;;;;;8.05;4.93;;;;;;;-146.27;46.76;80835.69;5026934;28;20037;-69
2023/06/05 10:58:03;;;;;;;7.22;4.20;;;;;;;-146.27;46.38;80721.25;5032787;28;20033;-69
2023/06/05 11:00:29;;;;;;;8.25;4.22;;;;;;;-146.27;47.48;80787.50;5032588;28;20056;-69
2023/06/05 11:02:55;;;;;;;7.93;4.22;;;;;;;-146.27;47.85;80679.06;5022530;28;20021;-70
2023/06/05 11:05:21;;;;;;;9.48;4.75;;;;;;;-146.27;46.87;80652.97;5028867;28;20029;-69
2023/06/05 11:07:46;;;;;;;7.32;4.00;;;;;;;-146.27;46.48;80600.75;5031551;28;20109;-69
2023/06/05 11:10:20;;;;;;;5.35;4.32;;;;;;;-146.27;46.04;80526.47;5031864;28;20055;-69
2023/06/05 11:12:45;;;;;;;6.45;4.75;;;;;;;-146.27;45.77;80534.50;5028672;28;20082;-69
2023/06/05 11:15:15;;;;;;;5.05;3.95;;;;;;;-146.27;43.79;80524.47;5011605;28;20068;-70